Nellis Afb Information

FAA: LSV - ICAO: KLSV

Nellis Afb (Airport) Location

State Nevada
County Clark
City Las Vegas
Nellis Afb (Airport) is 7 miles northeast of Las Vegas, NV.
Latitude 36-14-10.3200N
Longitude 115-02-03.3200W
Elevation 1,869ft

Nellis Afb METARs

METAR KLSV 060758Z AUTO 00000KT 10SM CLR 11/M06 A3010 RMK AO2 SLP185 T01051064 402280041 $
Altimeter 30.10"
Temperature 10.5°C (50.9°F)
Wind 0° at 0KT
Clouds Skies are clear.
Visibility 10.0mi
Time observed: 2021-12-06T07:58:00Z

Nellis Afb (Airport) Details

Status Operational
Activation November 1937
Ownership Military - Air Force
Usage Private
Chart LAS VEGAS
ATC on-site Yes
Beacon schedule sunset-sunrise
Beacon color clear green

Nellis Afb (Airport) Contacts

Owner USAF
Owner address NELLIS AFB, LAS VEGAS, NV 89110
Owner phone N/A
Manager THOMAS DARROW
Manager address 5505 HETTINGER PLACE, FALLON, NV 89406
Manager phone 775-867-2042

Nellis Afb Radio Frequencies

Nellis Afb (Airport) Radio Frequencies

UNICOM N/A
Common traffic advisory frequency (CTAF) N/A